Chitose — JD2925 — position and weather

sailwx.info

Track history (hours):
 
Tides and Currents Weather Stations Pressure Air Temp Water Temp Dewpoint Dewpoint Depression Visibility Wind Speed Wind Dir Waves Ship Positions

Chitose

Last reported at 2015-May-28 09:33 UTC. Time now 2015-May-28 11:55 UTC.
Position N 35°28' E 139°41'.

Length 33 m; draft 3.8 m.

Type: Tug. MMSI: 431000953.

Date/timePositionNaut miles runAvg speedWind from/ knotsBaromVisibWave heightAir tempDewpointWater temp
2015-May-28 09:33N 35°28' E 139°41'1 1.1
2015-May-28 08:33N 35°28' E 139°43'2 1.7
2015-May-28 07:33N 35°29' E 139°43'0 0.0
2015-May-28 06:33N 35°29' E 139°43'1 1.2
2015-May-28 05:33N 35°29' E 139°42'1 1.4
2015-May-28 04:34N 35°28' E 139°43'3 2.9
2015-May-28 03:33N 35°27' E 139°40'0 0.0
2015-May-28 02:33N 35°27' E 139°40'0 0.0
2015-May-28 01:33N 35°27' E 139°40'0 0.0
2015-May-28 00:33N 35°27' E 139°40'0 0.0
2015-May-27 23:33N 35°27' E 139°40'0 0.0
2015-May-27 22:33N 35°27' E 139°40'0 0.0
2015-May-27 21:33N 35°27' E 139°40'0 0.0
2015-May-27 20:33N 35°27' E 139°40'0 0.0
2015-May-27 19:33N 35°27' E 139°40'0 0.0
2015-May-27 18:33N 35°27' E 139°40'0 0.0
2015-May-27 17:33N 35°27' E 139°40'0 0.0
2015-May-27 16:33N 35°27' E 139°40'0 0.0
2015-May-27 15:33N 35°27' E 139°40'0 0.0
2015-May-27 14:33N 35°27' E 139°40'0 0.0
2015-May-27 13:33N 35°27' E 139°40'0 0.0
2015-May-27 12:33N 35°27' E 139°40'0 0.0
2015-May-27 11:33N 35°27' E 139°40'0 0.0
2015-May-27 10:33N 35°27' E 139°40'0 0.0
2015-May-27 09:33N 35°27' E 139°40'0 0.0
2015-May-27 08:33N 35°27' E 139°40'2 2.0
2015-May-27 07:33N 35°25' E 139°41'1 0.7
2015-May-27 06:33N 35°26' E 139°42'2 1.9
2015-May-27 05:33N 35°27' E 139°40'0 0.0
2015-May-27 04:33N 35°27' E 139°40'0 0.0
2015-May-27 03:33N 35°27' E 139°40'0 0.0
2015-May-27 02:33N 35°27' E 139°40'0 0.0
2015-May-27 01:33N 35°27' E 139°40'0 0.0
2015-May-27 00:33N 35°27' E 139°40'0 0.0
2015-May-26 23:33N 35°27' E 139°40'2 1.8
2015-May-26 22:33N 35°28' E 139°41'2 2.0
2015-May-26 21:34N 35°27' E 139°43'2 2.1
2015-May-26 20:33N 35°28' E 139°40'1 0.2
2015-May-26 12:33N 35°26' E 139°40'1 0.7
2015-May-26 11:34N 35°27' E 139°40'0 0.0
2015-May-26 10:34N 35°27' E 139°40'0 0.0
2015-May-26 06:33N 35°27' E 139°40'0 0.0
2015-May-26 05:33N 35°27' E 139°40'0 0.0
2015-May-26 04:33N 35°27' E 139°40'2 1.8
2015-May-26 03:33N 35°26' E 139°41'1 0.8
2015-May-26 02:33N 35°26' E 139°42'2 1.6
2015-May-26 01:33N 35°27' E 139°40'0 0.0
2015-May-26 00:34N 35°27' E 139°40'0 0.0
2015-May-25 23:34N 35°27' E 139°40'0 0.0
2015-May-25 22:33N 35°27' E 139°40'1 0.7
2015-May-25 21:33N 35°27' E 139°39'1 1.0
2015-May-25 20:34N 35°28' E 139°39'1 1.2
2015-May-25 19:34N 35°27' E 139°39'0 0.0
2015-May-25 18:34N 35°27' E 139°39'0 0.0
2015-May-25 17:33N 35°27' E 139°39'0 0.0
2015-May-25 16:34N 35°27' E 139°39'0 0.0
2015-May-25 15:33N 35°27' E 139°39'0 0.0
2015-May-25 14:33N 35°27' E 139°39'0 0.0
2015-May-25 13:34N 35°27' E 139°39'0 0.0
2015-May-25 12:33N 35°27' E 139°39'0 0.0
2015-May-25 11:33N 35°27' E 139°39'0 0.0
2015-May-25 10:33N 35°27' E 139°39'0 0.0
2015-May-25 09:33N 35°27' E 139°39'2 2.1
2015-May-25 08:33N 35°28' E 139°41'1 1.1
2015-May-25 07:33N 35°28' E 139°42'3 3.1
2015-May-25 06:33N 35°27' E 139°39'2 1.0
2015-May-25 04:34N 35°27' E 139°41'4 3.9
2015-May-25 03:33N 35°24' E 139°38'0 0.0
2015-May-25 02:33N 35°24' E 139°38'2 2.1
2015-May-25 01:33N 35°23' E 139°40'2 2.1
2015-May-25 00:33N 35°24' E 139°38'1 1.3
2015-May-24 23:33N 35°24' E 139°40'2 1.8
2015-May-24 22:34N 35°24' E 139°37'3 3.1
2015-May-24 21:33N 35°23' E 139°41'5 4.6
2015-May-24 20:33N 35°27' E 139°39'0 0.0
2015-May-24 06:34N 35°28' E 139°39'1 1.5
2015-May-24 05:33N 35°27' E 139°40'1 0.9
2015-May-24 04:34N 35°27' E 139°39'3 3.0
2015-May-24 03:34N 35°25' E 139°42'3 3.1
2015-May-24 02:33N 35°24' E 139°38'2 2.2
2015-May-24 01:33N 35°23' E 139°41'4 3.6
2015-May-24 00:34N 35°27' E 139°41'2 1.9
2015-May-23 23:34N 35°27' E 139°39'0 0.0
2015-May-23 22:34N 35°27' E 139°39'0 0.0
2015-May-23 21:34N 35°27' E 139°39'0 0.0
2015-May-23 20:34N 35°27' E 139°39'0 0.0
2015-May-23 19:33N 35°27' E 139°39'0 0.0
2015-May-23 18:33N 35°27' E 139°39'0 0.0
2015-May-23 17:34N 35°27' E 139°39'0 0.0
2015-May-23 16:33N 35°27' E 139°39'0 0.0
2015-May-23 15:34N 35°27' E 139°39'0 0.0
2015-May-23 14:33N 35°27' E 139°39'0 0.0
2015-May-23 13:33N 35°27' E 139°39'0 0.0
2015-May-23 12:34N 35°27' E 139°39'0 0.0
2015-May-23 11:34N 35°27' E 139°39'0 0.0
2015-May-23 10:33N 35°27' E 139°39'2 1.9
2015-May-23 09:34N 35°27' E 139°41'6 5.8
2015-May-23 08:33N 35°30' E 139°47'1 0.8
2015-May-23 07:33N 35°30' E 139°46'2 1.6
2015-May-23 06:34N 35°30' E 139°44'5 5.2
2015-May-23 05:33N 35°27' E 139°39'0 0.0
2015-May-23 04:33N 35°27' E 139°39'0 0.0
2015-May-23 03:34N 35°27' E 139°39'0 0.0
2015-May-23 02:34N 35°27' E 139°39'0 0.0
2015-May-23 01:34N 35°27' E 139°39'0 0.0
2015-May-23 00:33N 35°27' E 139°39'1 1.3
2015-May-22 23:34N 35°28' E 139°40'4 4.2
2015-May-22 22:33N 35°27' E 139°45'5 5.3
2015-May-22 21:33N 35°27' E 139°39'0 0.0
2015-May-22 10:12N 35°27' E 139°39'0 0.0
2015-May-22 09:33N 35°27' E 139°39'0 0.0
2015-May-22 08:34N 35°27' E 139°39'2 2.1
2015-May-22 07:33N 35°26' E 139°41'1 1.2
2015-May-22 06:33N 35°28' E 139°40'0 0.4
2015-May-22 05:34N 35°27' E 139°40'2 2.4
2015-May-22 04:33N 35°26' E 139°43'3 3.5
2015-May-22 03:34N 35°28' E 139°39'0 0.3
2015-May-22 02:33N 35°27' E 139°39'0 0.0
2015-May-22 01:33N 35°27' E 139°39'0 0.0
2015-May-22 00:33N 35°27' E 139°39'0 0.0
2015-May-21 23:33N 35°27' E 139°39'0 0.0
2015-May-21 22:33N 35°27' E 139°39'0 0.0
2015-May-20 23:34N 35°27' E 139°39'0 0.0
2015-May-20 22:34N 35°27' E 139°39'0 0.0
2015-May-19 23:21N 35°27' E 139°39'5 5.7
2015-May-19 22:33N 35°30' E 139°43'2 1.6
2015-May-19 21:34N 35°29' E 139°42'2 1.6
2015-May-19 20:34N 35°27' E 139°43'0 0.0
2015-May-19 19:33N 35°27' E 139°43'0 0.0
2015-May-19 18:34N 35°27' E 139°43'3 3.2
2015-May-19 17:33N 35°24' E 139°41'1 1.4
2015-May-19 16:33N 35°25' E 139°42'0 0.0
2015-May-19 15:34N 35°25' E 139°42'0 0.0
2015-May-19 14:34N 35°25' E 139°42'0 0.0
2015-May-19 13:34N 35°25' E 139°42'0 0.0
2015-May-19 12:33N 35°25' E 139°42'5 4.8
2015-May-19 11:33N 35°30' E 139°44'1 0.8
2015-May-19 10:33N 35°29' E 139°43'1 1.4
2015-May-19 09:33N 35°28' E 139°43'1 0.6
2015-May-19 08:33N 35°27' E 139°42'0 0.0
2015-May-19 07:33N 35°27' E 139°42'1 1.5
2015-May-19 06:33N 35°27' E 139°41'1 1.2
2015-May-19 05:34N 35°27' E 139°39'0 0.0
2015-May-19 04:33N 35°27' E 139°39'0 0.0
2015-May-19 03:33N 35°27' E 139°39'0 0.0
2015-May-19 02:34N 35°27' E 139°39'0 0.0
2015-May-19 01:34N 35°27' E 139°39'0 0.0
2015-May-19 00:33N 35°27' E 139°39'0 0.0
2015-May-18 23:33N 35°27' E 139°39'2 2.3
2015-May-18 22:33N 35°26' E 139°42'3 3.0
2015-May-18 21:34N 35°27' E 139°39'  
Track history (hours):
 
Tides and Currents Weather Stations Pressure Air Temp Water Temp Dewpoint Dewpoint Depression Visibility Wind Speed Wind Dir Waves Ship Positions

Chitose

Last reported at 2015-May-28 09:33 UTC. Time now 2015-May-28 11:55 UTC.
Position N 35°28' E 139°41'.

Length 33 m; draft 3.8 m.

Type: Tug. MMSI: 431000953.

Date/timePositionNaut miles runAvg speedWind from/ knotsBaromVisibWave heightAir tempDewpointWater temp
2015-May-28 09:33N 35°28' E 139°41'1 1.1
2015-May-28 08:33N 35°28' E 139°43'2 1.7
2015-May-28 07:33N 35°29' E 139°43'0 0.0
2015-May-28 06:33N 35°29' E 139°43'1 1.2
2015-May-28 05:33N 35°29' E 139°42'1 1.4
2015-May-28 04:34N 35°28' E 139°43'3 2.9
2015-May-28 03:33N 35°27' E 139°40'0 0.0
2015-May-28 02:33N 35°27' E 139°40'0 0.0
2015-May-28 01:33N 35°27' E 139°40'0 0.0
2015-May-28 00:33N 35°27' E 139°40'0 0.0
2015-May-27 23:33N 35°27' E 139°40'0 0.0
2015-May-27 22:33N 35°27' E 139°40'0 0.0
2015-May-27 21:33N 35°27' E 139°40'0 0.0
2015-May-27 20:33N 35°27' E 139°40'0 0.0
2015-May-27 19:33N 35°27' E 139°40'0 0.0
2015-May-27 18:33N 35°27' E 139°40'0 0.0
2015-May-27 17:33N 35°27' E 139°40'0 0.0
2015-May-27 16:33N 35°27' E 139°40'0 0.0
2015-May-27 15:33N 35°27' E 139°40'0 0.0
2015-May-27 14:33N 35°27' E 139°40'0 0.0
2015-May-27 13:33N 35°27' E 139°40'0 0.0
2015-May-27 12:33N 35°27' E 139°40'0 0.0
2015-May-27 11:33N 35°27' E 139°40'0 0.0
2015-May-27 10:33N 35°27' E 139°40'0 0.0
2015-May-27 09:33N 35°27' E 139°40'0 0.0
2015-May-27 08:33N 35°27' E 139°40'2 2.0
2015-May-27 07:33N 35°25' E 139°41'1 0.7
2015-May-27 06:33N 35°26' E 139°42'2 1.9
2015-May-27 05:33N 35°27' E 139°40'0 0.0
2015-May-27 04:33N 35°27' E 139°40'0 0.0
2015-May-27 03:33N 35°27' E 139°40'0 0.0
2015-May-27 02:33N 35°27' E 139°40'0 0.0
2015-May-27 01:33N 35°27' E 139°40'0 0.0
2015-May-27 00:33N 35°27' E 139°40'0 0.0
2015-May-26 23:33N 35°27' E 139°40'2 1.8
2015-May-26 22:33N 35°28' E 139°41'2 2.0
2015-May-26 21:34N 35°27' E 139°43'2 2.1
2015-May-26 20:33N 35°28' E 139°40'1 0.2
2015-May-26 12:33N 35°26' E 139°40'1 0.7
2015-May-26 11:34N 35°27' E 139°40'0 0.0
2015-May-26 10:34N 35°27' E 139°40'0 0.0
2015-May-26 06:33N 35°27' E 139°40'0 0.0
2015-May-26 05:33N 35°27' E 139°40'0 0.0
2015-May-26 04:33N 35°27' E 139°40'2 1.8
2015-May-26 03:33N 35°26' E 139°41'1 0.8
2015-May-26 02:33N 35°26' E 139°42'2 1.6
2015-May-26 01:33N 35°27' E 139°40'0 0.0
2015-May-26 00:34N 35°27' E 139°40'0 0.0
2015-May-25 23:34N 35°27' E 139°40'0 0.0
2015-May-25 22:33N 35°27' E 139°40'1 0.7
2015-May-25 21:33N 35°27' E 139°39'1 1.0
2015-May-25 20:34N 35°28' E 139°39'1 1.2
2015-May-25 19:34N 35°27' E 139°39'0 0.0
2015-May-25 18:34N 35°27' E 139°39'0 0.0
2015-May-25 17:33N 35°27' E 139°39'0 0.0
2015-May-25 16:34N 35°27' E 139°39'0 0.0
2015-May-25 15:33N 35°27' E 139°39'0 0.0
2015-May-25 14:33N 35°27' E 139°39'0 0.0
2015-May-25 13:34N 35°27' E 139°39'0 0.0
2015-May-25 12:33N 35°27' E 139°39'0 0.0
2015-May-25 11:33N 35°27' E 139°39'0 0.0
2015-May-25 10:33N 35°27' E 139°39'0 0.0
2015-May-25 09:33N 35°27' E 139°39'2 2.1
2015-May-25 08:33N 35°28' E 139°41'1 1.1
2015-May-25 07:33N 35°28' E 139°42'3 3.1
2015-May-25 06:33N 35°27' E 139°39'2 1.0
2015-May-25 04:34N 35°27' E 139°41'4 3.9
2015-May-25 03:33N 35°24' E 139°38'0 0.0
2015-May-25 02:33N 35°24' E 139°38'2 2.1
2015-May-25 01:33N 35°23' E 139°40'2 2.1
2015-May-25 00:33N 35°24' E 139°38'1 1.3
2015-May-24 23:33N 35°24' E 139°40'2 1.8
2015-May-24 22:34N 35°24' E 139°37'3 3.1
2015-May-24 21:33N 35°23' E 139°41'5 4.6
2015-May-24 20:33N 35°27' E 139°39'0 0.0
2015-May-24 06:34N 35°28' E 139°39'1 1.5
2015-May-24 05:33N 35°27' E 139°40'1 0.9
2015-May-24 04:34N 35°27' E 139°39'3 3.0
2015-May-24 03:34N 35°25' E 139°42'3 3.1
2015-May-24 02:33N 35°24' E 139°38'2 2.2
2015-May-24 01:33N 35°23' E 139°41'4 3.6
2015-May-24 00:34N 35°27' E 139°41'2 1.9
2015-May-23 23:34N 35°27' E 139°39'0 0.0
2015-May-23 22:34N 35°27' E 139°39'0 0.0
2015-May-23 21:34N 35°27' E 139°39'0 0.0
2015-May-23 20:34N 35°27' E 139°39'0 0.0
2015-May-23 19:33N 35°27' E 139°39'0 0.0
2015-May-23 18:33N 35°27' E 139°39'0 0.0
2015-May-23 17:34N 35°27' E 139°39'0 0.0
2015-May-23 16:33N 35°27' E 139°39'0 0.0
2015-May-23 15:34N 35°27' E 139°39'0 0.0
2015-May-23 14:33N 35°27' E 139°39'0 0.0
2015-May-23 13:33N 35°27' E 139°39'0 0.0
2015-May-23 12:34N 35°27' E 139°39'0 0.0
2015-May-23 11:34N 35°27' E 139°39'0 0.0
2015-May-23 10:33N 35°27' E 139°39'2 1.9
2015-May-23 09:34N 35°27' E 139°41'6 5.8
2015-May-23 08:33N 35°30' E 139°47'1 0.8
2015-May-23 07:33N 35°30' E 139°46'2 1.6
2015-May-23 06:34N 35°30' E 139°44'5 5.2
2015-May-23 05:33N 35°27' E 139°39'0 0.0
2015-May-23 04:33N 35°27' E 139°39'0 0.0
2015-May-23 03:34N 35°27' E 139°39'0 0.0
2015-May-23 02:34N 35°27' E 139°39'0 0.0
2015-May-23 01:34N 35°27' E 139°39'0 0.0
2015-May-23 00:33N 35°27' E 139°39'1 1.3
2015-May-22 23:34N 35°28' E 139°40'4 4.2
2015-May-22 22:33N 35°27' E 139°45'5 5.3
2015-May-22 21:33N 35°27' E 139°39'0 0.0
2015-May-22 10:12N 35°27' E 139°39'0 0.0
2015-May-22 09:33N 35°27' E 139°39'0 0.0
2015-May-22 08:34N 35°27' E 139°39'2 2.1
2015-May-22 07:33N 35°26' E 139°41'1 1.2
2015-May-22 06:33N 35°28' E 139°40'0 0.4
2015-May-22 05:34N 35°27' E 139°40'2 2.4
2015-May-22 04:33N 35°26' E 139°43'3 3.5
2015-May-22 03:34N 35°28' E 139°39'0 0.3
2015-May-22 02:33N 35°27' E 139°39'0 0.0
2015-May-22 01:33N 35°27' E 139°39'0 0.0
2015-May-22 00:33N 35°27' E 139°39'0 0.0
2015-May-21 23:33N 35°27' E 139°39'0 0.0
2015-May-21 22:33N 35°27' E 139°39'0 0.0
2015-May-20 23:34N 35°27' E 139°39'0 0.0
2015-May-20 22:34N 35°27' E 139°39'0 0.0
2015-May-19 23:21N 35°27' E 139°39'5 5.7
2015-May-19 22:33N 35°30' E 139°43'2 1.6
2015-May-19 21:34N 35°29' E 139°42'2 1.6
2015-May-19 20:34N 35°27' E 139°43'0 0.0
2015-May-19 19:33N 35°27' E 139°43'0 0.0
2015-May-19 18:34N 35°27' E 139°43'3 3.2
2015-May-19 17:33N 35°24' E 139°41'1 1.4
2015-May-19 16:33N 35°25' E 139°42'0 0.0
2015-May-19 15:34N 35°25' E 139°42'0 0.0
2015-May-19 14:34N 35°25' E 139°42'0 0.0
2015-May-19 13:34N 35°25' E 139°42'0 0.0
2015-May-19 12:33N 35°25' E 139°42'5 4.8
2015-May-19 11:33N 35°30' E 139°44'1 0.8
2015-May-19 10:33N 35°29' E 139°43'1 1.4
2015-May-19 09:33N 35°28' E 139°43'1 0.6
2015-May-19 08:33N 35°27' E 139°42'0 0.0
2015-May-19 07:33N 35°27' E 139°42'1 1.5
2015-May-19 06:33N 35°27' E 139°41'1 1.2
2015-May-19 05:34N 35°27' E 139°39'0 0.0
2015-May-19 04:33N 35°27' E 139°39'0 0.0
2015-May-19 03:33N 35°27' E 139°39'0 0.0
2015-May-19 02:34N 35°27' E 139°39'0 0.0
2015-May-19 01:34N 35°27' E 139°39'0 0.0
2015-May-19 00:33N 35°27' E 139°39'0 0.0
2015-May-18 23:33N 35°27' E 139°39'2 2.3
2015-May-18 22:33N 35°26' E 139°42'3 3.0
2015-May-18 21:34N 35°27' E 139°39'  

Dump ship's entire track history